Time;durP1;ratioP1;P1;durP2;ratioP2;P2;SDS_P1;SDS_P2;PMS_P1;PMS_P2;Temp;Humidity;BMP_temperature;BMP_pressure;BME280_temperature;BME280_humidity;BME280_pressure;Samples;Min_cycle;Max_cycle;Signal;HPM_P1;HPM_P2
2021/08/26 00:07:07;;;;;;;12.93;6.65;;;;;;;;;;754382;182;919094;-65
2021/08/26 00:09:32;;;;;;;12.50;6.50;;;;;;;;;;753463;183;919269;-65
2021/08/26 00:11:58;;;;;;;8.55;5.90;;;;;;;;;;754074;183;919179;-65
2021/08/26 00:14:24;;;;;;;11.63;6.63;;;;;;;;;;759350;183;918638;-65
2021/08/26 00:16:50;;;;;;;11.20;7.10;;;;;;;;;;754610;183;919132;-64
2021/08/26 00:19:16;;;;;;;12.30;6.78;;;;;;;;;;754972;183;917939;-65
2021/08/26 00:21:42;;;;;;;12.30;7.63;;;;;;;;;;760967;182;908190;-63
2021/08/26 00:24:07;;;;;;;19.20;7.67;;;;;;;;;;755196;183;915069;-63
2021/08/26 00:26:33;;;;;;;10.13;7.60;;;;;;;;;;754528;183;916329;-63
2021/08/26 00:29:00;;;;;;;13.07;7.43;;;;;;;;;;761936;184;915526;-63
2021/08/26 00:31:26;;;;;;;12.63;8.37;;;;;;;;;;755993;184;872144;-63
2021/08/26 00:33:52;;;;;;;18.00;10.20;;;;;;;;;;754440;184;919009;-63
2021/08/26 00:36:17;;;;;;;14.97;9.60;;;;;;;;;;753668;184;918504;-64
2021/08/26 00:38:45;;;;;;;17.37;10.53;;;;;;;;;;761085;181;918730;-63
2021/08/26 00:41:09;;;;;;;15.73;10.00;;;;;;;;;;755873;181;919132;-64
2021/08/26 00:43:35;;;;;;;17.20;10.87;;;;;;;;;;753824;184;918822;-63
2021/08/26 00:46:01;;;;;;;15.07;9.63;;;;;;;;;;759359;184;920248;-63
2021/08/26 00:48:27;;;;;;;16.43;9.70;;;;;;;;;;754310;184;918799;-63
2021/08/26 00:50:52;;;;;;;15.97;9.23;;;;;;;;;;754369;184;918605;-63
2021/08/26 00:53:18;;;;;;;13.90;8.80;;;;;;;;;;757553;184;1061498;-63
2021/08/26 00:55:44;;;;;;;14.63;9.70;;;;;;;;;;753751;184;919792;-63
2021/08/26 00:58:10;;;;;;;21.67;11.17;;;;;;;;;;754220;184;918981;-63
2021/08/26 01:00:36;;;;;;;16.25;11.55;;;;;;;;;;753366;184;918742;-63
2021/08/26 01:03:02;;;;;;;22.30;12.10;;;;;;;;;;761350;183;919340;-64
2021/08/26 01:05:29;;;;;;;20.23;13.00;;;;;;;;;;756809;183;921215;-63
2021/08/26 01:08:00;;;;;;;25.80;13.10;;;;;;;;;;756045;183;923620;-64
2021/08/26 01:10:26;;;;;;;24.93;13.20;;;;;;;;;;759310;184;920224;-64
2021/08/26 01:12:51;;;;;;;25.83;14.97;;;;;;;;;;754320;183;918518;-64
2021/08/26 01:15:17;;;;;;;27.60;15.67;;;;;;;;;;756233;183;919897;-64
2021/08/26 01:17:43;;;;;;;24.63;15.30;;;;;;;;;;755236;183;919939;-64
2021/08/26 01:20:09;;;;;;;27.48;16.62;;;;;;;;;;759058;183;998352;-65
2021/08/26 01:22:35;;;;;;;26.23;14.90;;;;;;;;;;753464;184;919188;-64
2021/08/26 01:25:04;;;;;;;21.00;14.60;;;;;;;;;;755081;183;919376;-64
2021/08/26 01:27:33;;;;;;;25.10;14.97;;;;;;;;;;756396;184;920230;-65
2021/08/26 01:30:01;;;;;;;26.70;17.87;;;;;;;;;;752701;183;915312;-65
2021/08/26 01:32:25;;;;;;;29.07;15.20;;;;;;;;;;753976;183;944623;-65
2021/08/26 01:34:51;;;;;;;24.47;15.47;;;;;;;;;;757063;183;918973;-64
2021/08/26 01:37:18;;;;;;;21.90;15.93;;;;;;;;;;760632;182;916730;-65
2021/08/26 01:39:45;;;;;;;27.23;16.20;;;;;;;;;;753060;182;1100760;-64
2021/08/26 01:42:10;;;;;;;29.07;16.30;;;;;;;;;;756628;184;916723;-65
2021/08/26 01:44:36;;;;;;;26.50;15.40;;;;;;;;;;758098;184;918148;-65
2021/08/26 01:47:04;;;;;;;34.00;15.20;;;;;;;;;;754196;184;918601;-65
2021/08/26 01:49:30;;;;;;;35.43;17.77;;;;;;;;;;754369;181;920032;-65
2021/08/26 01:51:56;;;;;;;26.23;15.88;;;;;;;;;;755013;184;918544;-65
2021/08/26 01:54:22;;;;;;;31.43;15.90;;;;;;;;;;761994;181;918342;-65
2021/08/26 01:56:48;;;;;;;27.40;17.20;;;;;;;;;;754146;184;919620;-65
2021/08/26 01:59:13;;;;;;;26.77;16.10;;;;;;;;;;753599;184;919528;-65
2021/08/26 02:01:39;;;;;;;27.13;15.93;;;;;;;;;;759745;184;918793;-65
2021/08/26 02:04:05;;;;;;;28.80;15.07;;;;;;;;;;755951;181;922082;-65
2021/08/26 02:06:31;;;;;;;25.25;15.75;;;;;;;;;;755672;184;919051;-65
2021/08/26 02:08:57;;;;;;;26.50;15.17;;;;;;;;;;759946;182;917823;-65
2021/08/26 02:11:23;;;;;;;22.30;14.63;;;;;;;;;;754499;184;916024;-65
2021/08/26 02:13:49;;;;;;;25.60;15.63;;;;;;;;;;755051;183;916675;-65
2021/08/26 02:16:14;;;;;;;25.00;15.30;;;;;;;;;;760384;180;915590;-66
2021/08/26 02:18:41;;;;;;;28.58;16.12;;;;;;;;;;756233;183;915057;-66
2021/08/26 02:21:07;;;;;;;25.37;15.20;;;;;;;;;;755672;181;918635;-65
2021/08/26 02:23:33;;;;;;;27.27;15.47;;;;;;;;;;754848;184;919738;-65
2021/08/26 02:25:59;;;;;;;24.17;16.17;;;;;;;;;;760594;183;918912;-65
2021/08/26 02:28:24;;;;;;;24.33;14.90;;;;;;;;;;756633;184;919834;-65
2021/08/26 02:30:50;;;;;;;26.43;15.10;;;;;;;;;;755009;184;919398;-65
2021/08/26 02:33:16;;;;;;;23.23;15.10;;;;;;;;;;759886;183;920225;-65
2021/08/26 02:35:42;;;;;;;31.25;15.90;;;;;;;;;;755004;183;918982;-65
2021/08/26 02:38:08;;;;;;;24.00;14.10;;;;;;;;;;753306;184;1020015;-67
2021/08/26 02:40:34;;;;;;;21.87;14.50;;;;;;;;;;759868;184;918265;-66
2021/08/26 02:42:59;;;;;;;26.67;15.17;;;;;;;;;;753758;182;918870;-65
2021/08/26 02:45:25;;;;;;;23.80;16.53;;;;;;;;;;754293;183;918994;-65
2021/08/26 02:47:51;;;;;;;22.03;14.70;;;;;;;;;;753107;184;918863;-65
2021/08/26 02:50:17;;;;;;;25.47;14.17;;;;;;;;;;754909;184;919289;-65
2021/08/26 02:52:43;;;;;;;24.83;15.50;;;;;;;;;;752553;184;945131;-68
2021/08/26 02:55:09;;;;;;;25.10;14.90;;;;;;;;;;753163;184;921758;-65
2021/08/26 02:57:35;;;;;;;24.13;15.23;;;;;;;;;;759298;184;917533;-65
2021/08/26 03:00:01;;;;;;;24.27;16.00;;;;;;;;;;755062;184;918264;-66
2021/08/26 03:02:26;;;;;;;30.97;17.20;;;;;;;;;;753999;181;919447;-66
2021/08/26 03:04:53;;;;;;;26.43;15.80;;;;;;;;;;760166;184;919100;-66
2021/08/26 03:07:18;;;;;;;24.17;14.03;;;;;;;;;;756242;184;922352;-65
2021/08/26 03:09:44;;;;;;;29.13;14.83;;;;;;;;;;755210;184;919402;-66
2021/08/26 03:12:10;;;;;;;20.53;13.80;;;;;;;;;;753984;184;919109;-65
2021/08/26 03:14:36;;;;;;;23.40;14.87;;;;;;;;;;754965;184;1024285;-66
2021/08/26 03:17:02;;;;;;;27.77;15.77;;;;;;;;;;753859;181;918353;-66
2021/08/26 03:19:28;;;;;;;21.35;14.90;;;;;;;;;;755624;184;919563;-66
2021/08/26 03:21:54;;;;;;;23.87;14.00;;;;;;;;;;760053;184;917058;-66
2021/08/26 03:24:20;;;;;;;24.67;14.90;;;;;;;;;;753480;184;920682;-66
2021/08/26 03:26:45;;;;;;;26.17;16.20;;;;;;;;;;757628;180;921361;-66
2021/08/26 03:29:11;;;;;;;22.90;14.97;;;;;;;;;;761796;183;920509;-65
2021/08/26 03:31:37;;;;;;;29.63;16.67;;;;;;;;;;744741;185;920567;-66
2021/08/26 03:34:03;;;;;;;26.33;15.40;;;;;;;;;;758176;183;919671;-66
2021/08/26 03:36:29;;;;;;;23.80;14.53;;;;;;;;;;759071;183;919605;-65
2021/08/26 03:38:55;;;;;;;27.40;15.53;;;;;;;;;;755645;183;916622;-66
2021/08/26 03:41:20;;;;;;;25.10;16.37;;;;;;;;;;753136;184;918511;-66
2021/08/26 03:43:46;;;;;;;28.33;17.80;;;;;;;;;;753007;182;920256;-66
2021/08/26 03:46:12;;;;;;;28.67;17.07;;;;;;;;;;760286;181;918011;-66
2021/08/26 03:48:38;;;;;;;25.07;16.50;;;;;;;;;;756262;184;919435;-65
2021/08/26 03:51:04;;;;;;;25.13;16.63;;;;;;;;;;756131;184;925402;-66
2021/08/26 03:53:30;;;;;;;33.30;17.90;;;;;;;;;;759443;183;920602;-65
2021/08/26 03:55:56;;;;;;;28.83;15.77;;;;;;;;;;755306;184;916452;-66
2021/08/26 03:58:21;;;;;;;25.13;16.30;;;;;;;;;;755183;181;916038;-65
2021/08/26 04:00:47;;;;;;;27.30;16.70;;;;;;;;;;760023;183;915842;-66
2021/08/26 04:03:13;;;;;;;23.57;16.27;;;;;;;;;;754934;183;919074;-66
2021/08/26 04:05:39;;;;;;;26.20;15.90;;;;;;;;;;753962;182;916361;-65
2021/08/26 04:08:05;;;;;;;21.40;15.40;;;;;;;;;;753362;184;931434;-64
2021/08/26 04:10:31;;;;;;;25.07;15.30;;;;;;;;;;754793;183;915568;-65
2021/08/26 04:12:57;;;;;;;24.00;15.23;;;;;;;;;;751677;184;919444;-65
2021/08/26 04:15:23;;;;;;;20.30;14.40;;;;;;;;;;753214;184;919039;-66
2021/08/26 04:17:48;;;;;;;24.30;15.10;;;;;;;;;;759228;184;918514;-65
2021/08/26 04:20:14;;;;;;;20.63;14.43;;;;;;;;;;755019;184;918596;-65
2021/08/26 04:22:40;;;;;;;22.07;14.00;;;;;;;;;;754337;184;919617;-66
2021/08/26 04:25:06;;;;;;;24.23;14.23;;;;;;;;;;757975;184;918432;-65
2021/08/26 04:27:32;;;;;;;20.60;13.33;;;;;;;;;;756358;182;1022323;-67
2021/08/26 04:29:58;;;;;;;17.30;12.37;;;;;;;;;;755426;184;919170;-64
2021/08/26 04:32:24;;;;;;;24.17;14.80;;;;;;;;;;754272;184;918562;-63
2021/08/26 04:34:50;;;;;;;21.37;13.27;;;;;;;;;;762152;181;918800;-63
2021/08/26 04:37:16;;;;;;;20.13;12.03;;;;;;;;;;754104;184;918389;-66
2021/08/26 04:39:41;;;;;;;25.30;13.10;;;;;;;;;;754237;184;920351;-64
2021/08/26 04:42:07;;;;;;;22.17;12.30;;;;;;;;;;762059;183;918391;-64
2021/08/26 04:44:33;;;;;;;19.10;13.63;;;;;;;;;;756812;184;919193;-64
2021/08/26 04:46:59;;;;;;;16.40;10.80;;;;;;;;;;757569;181;919454;-65
2021/08/26 04:49:25;;;;;;;20.63;11.53;;;;;;;;;;760196;182;928241;-63
2021/08/26 04:51:51;;;;;;;21.80;13.47;;;;;;;;;;758436;183;920058;-63
2021/08/26 04:54:18;;;;;;;21.20;12.77;;;;;;;;;;757751;184;918969;-65
2021/08/26 04:56:42;;;;;;;29.23;13.50;;;;;;;;;;758941;183;918665;-64
2021/08/26 04:59:08;;;;;;;19.70;11.50;;;;;;;;;;754366;183;919292;-64
2021/08/26 05:01:34;;;;;;;20.30;11.90;;;;;;;;;;753691;184;919963;-64
2021/08/26 05:04:03;;;;;;;18.17;11.77;;;;;;;;;;754445;183;923167;-64
2021/08/26 05:06:26;;;;;;;18.70;12.20;;;;;;;;;;759449;183;939969;-65
2021/08/26 05:08:52;;;;;;;19.77;11.70;;;;;;;;;;754823;183;919034;-65
2021/08/26 05:11:18;;;;;;;17.47;12.40;;;;;;;;;;755872;183;918029;-64
2021/08/26 05:13:43;;;;;;;18.73;12.63;;;;;;;;;;759523;184;918186;-66
2021/08/26 05:16:09;;;;;;;22.47;11.80;;;;;;;;;;755329;184;919598;-64
2021/08/26 05:18:36;;;;;;;18.00;11.17;;;;;;;;;;755506;181;919582;-65
2021/08/26 05:21:01;;;;;;;20.13;11.37;;;;;;;;;;758372;184;917764;-64
2021/08/26 05:23:29;;;;;;;18.70;11.60;;;;;;;;;;754292;184;919559;-64
2021/08/26 05:25:53;;;;;;;14.40;11.40;;;;;;;;;;756106;184;919752;-64
2021/08/26 05:28:19;;;;;;;16.87;12.03;;;;;;;;;;754687;184;919012;-64
2021/08/26 05:30:45;;;;;;;18.50;11.30;;;;;;;;;;763329;182;919090;-64
2021/08/26 05:33:11;;;;;;;15.70;11.20;;;;;;;;;;753243;184;945452;-63
2021/08/26 05:35:36;;;;;;;16.30;11.63;;;;;;;;;;753245;184;919100;-62
2021/08/26 05:38:02;;;;;;;15.77;12.30;;;;;;;;;;759577;184;919022;-62
2021/08/26 05:40:28;;;;;;;21.40;12.43;;;;;;;;;;754023;184;919456;-61
2021/08/26 05:42:54;;;;;;;21.00;11.57;;;;;;;;;;754215;184;920252;-62
2021/08/26 05:45:20;;;;;;;17.07;10.60;;;;;;;;;;760241;184;919780;-62
2021/08/26 05:47:46;;;;;;;14.97;10.20;;;;;;;;;;754616;184;918655;-61
2021/08/26 05:50:12;;;;;;;19.20;11.23;;;;;;;;;;756836;183;919390;-63
2021/08/26 05:52:38;;;;;;;19.33;11.70;;;;;;;;;;758450;184;918859;-63
2021/08/26 05:55:04;;;;;;;17.27;11.23;;;;;;;;;;754777;183;916193;-63
2021/08/26 05:57:30;;;;;;;14.23;10.43;;;;;;;;;;753981;183;916274;-61
2021/08/26 05:59:56;;;;;;;14.07;10.40;;;;;;;;;;756093;181;917302;-61
2021/08/26 06:02:22;;;;;;;15.90;10.87;;;;;;;;;;761343;183;916415;-61
2021/08/26 06:04:48;;;;;;;17.70;10.33;;;;;;;;;;757656;181;914849;-60
2021/08/26 06:07:14;;;;;;;16.40;10.07;;;;;;;;;;758878;184;872923;-60
2021/08/26 06:09:40;;;;;;;18.80;10.20;;;;;;;;;;758818;184;918260;-60
2021/08/26 06:12:06;;;;;;;16.83;8.83;;;;;;;;;;751384;184;918580;-60
2021/08/26 06:14:32;;;;;;;17.03;10.20;;;;;;;;;;755991;183;918813;-61
2021/08/26 06:16:57;;;;;;;12.80;9.60;;;;;;;;;;759689;183;918408;-61
2021/08/26 06:19:23;;;;;;;17.23;10.97;;;;;;;;;;755883;183;920808;-61
2021/08/26 06:21:49;;;;;;;15.47;10.30;;;;;;;;;;753138;184;920140;-61
2021/08/26 06:24:15;;;;;;;11.95;9.30;;;;;;;;;;754133;183;917925;-62
2021/08/26 06:26:41;;;;;;;24.50;12.73;;;;;;;;;;758725;183;921134;-62
2021/08/26 06:29:07;;;;;;;14.63;10.33;;;;;;;;;;755567;183;920468;-62
2021/08/26 06:31:32;;;;;;;15.63;10.87;;;;;;;;;;755041;184;918957;-62
2021/08/26 06:33:58;;;;;;;14.80;9.60;;;;;;;;;;760008;184;919057;-62
2021/08/26 06:36:24;;;;;;;13.20;10.20;;;;;;;;;;756124;181;916648;-62
2021/08/26 06:38:50;;;;;;;14.50;10.50;;;;;;;;;;753623;184;919105;-63
2021/08/26 06:41:16;;;;;;;12.30;9.83;;;;;;;;;;757967;184;919670;-64
2021/08/26 06:43:42;;;;;;;13.30;9.60;;;;;;;;;;754471;181;916125;-64
2021/08/26 06:46:08;;;;;;;16.53;10.10;;;;;;;;;;753482;184;919385;-63
2021/08/26 06:48:33;;;;;;;13.93;9.53;;;;;;;;;;755032;184;919209;-63
2021/08/26 06:50:59;;;;;;;17.40;10.40;;;;;;;;;;760119;183;919003;-63
2021/08/26 06:53:25;;;;;;;13.63;9.30;;;;;;;;;;751588;184;919843;-63
2021/08/26 06:55:51;;;;;;;17.20;9.77;;;;;;;;;;754157;184;926002;-64
2021/08/26 06:58:17;;;;;;;12.00;8.83;;;;;;;;;;759650;184;918758;-64
2021/08/26 07:00:43;;;;;;;18.60;9.77;;;;;;;;;;755509;183;918895;-64
2021/08/26 07:03:08;;;;;;;13.30;8.00;;;;;;;;;;756927;184;917492;-64
2021/08/26 07:05:34;;;;;;;14.43;9.53;;;;;;;;;;760724;183;918625;-64
2021/08/26 07:08:00;;;;;;;15.27;10.07;;;;;;;;;;756603;181;916107;-64
2021/08/26 07:10:26;;;;;;;13.15;8.93;;;;;;;;;;754620;183;920475;-64
2021/08/26 07:12:52;;;;;;;13.70;8.10;;;;;;;;;;757349;183;916098;-63
2021/08/26 07:15:18;;;;;;;13.33;8.20;;;;;;;;;;762748;181;915053;-64
2021/08/26 07:17:44;;;;;;;17.30;8.20;;;;;;;;;;753115;184;914838;-64
2021/08/26 07:20:10;;;;;;;12.37;7.57;;;;;;;;;;752850;183;918873;-64
2021/08/26 07:22:36;;;;;;;11.63;8.50;;;;;;;;;;759650;183;917379;-65
2021/08/26 07:25:02;;;;;;;10.63;8.80;;;;;;;;;;755016;184;919060;-65
2021/08/26 07:27:28;;;;;;;12.35;8.18;;;;;;;;;;756034;181;919315;-65
2021/08/26 07:29:54;;;;;;;11.80;8.20;;;;;;;;;;759316;183;918098;-65
2021/08/26 07:32:20;;;;;;;15.00;8.10;;;;;;;;;;755207;184;918864;-65
2021/08/26 07:34:45;;;;;;;11.47;8.30;;;;;;;;;;755112;184;919522;-65
2021/08/26 07:37:11;;;;;;;16.30;8.80;;;;;;;;;;758943;183;904933;-67
2021/08/26 07:39:37;;;;;;;10.10;7.93;;;;;;;;;;753300;184;918431;-65
2021/08/26 07:42:03;;;;;;;11.10;7.17;;;;;;;;;;754640;184;918037;-66
2021/08/26 07:44:29;;;;;;;14.20;7.70;;;;;;;;;;754022;184;919430;-65
2021/08/26 07:46:55;;;;;;;9.87;6.53;;;;;;;;;;759470;181;917863;-65
2021/08/26 07:49:20;;;;;;;11.53;7.17;;;;;;;;;;756036;184;918596;-66
2021/08/26 07:51:46;;;;;;;14.73;7.07;;;;;;;;;;754142;181;918589;-65
2021/08/26 07:54:12;;;;;;;11.63;6.87;;;;;;;;;;759231;184;919219;-65
2021/08/26 07:56:38;;;;;;;9.33;6.90;;;;;;;;;;756055;184;918551;-64
2021/08/26 07:59:04;;;;;;;14.20;8.20;;;;;;;;;;755422;184;919706;-64
2021/08/26 08:01:30;;;;;;;11.97;7.87;;;;;;;;;;759499;181;919094;-65
2021/08/26 08:03:55;;;;;;;11.90;7.63;;;;;;;;;;755182;184;919415;-64
2021/08/26 08:06:21;;;;;;;14.07;8.10;;;;;;;;;;754315;184;919156;-64
2021/08/26 08:08:47;;;;;;;11.90;7.70;;;;;;;;;;753402;184;919177;-61
2021/08/26 08:11:15;;;;;;;13.37;8.50;;;;;;;;;;761457;183;919035;-61
2021/08/26 08:13:39;;;;;;;11.10;8.00;;;;;;;;;;755233;183;918901;-63
2021/08/26 08:16:05;;;;;;;11.40;7.80;;;;;;;;;;756251;183;919101;-63
2021/08/26 08:18:31;;;;;;;11.57;7.67;;;;;;;;;;761008;183;919842;-62
2021/08/26 08:20:57;;;;;;;12.53;7.93;;;;;;;;;;756041;183;918462;-62
2021/08/26 08:23:23;;;;;;;11.97;7.93;;;;;;;;;;757606;183;921170;-60
2021/08/26 08:25:48;;;;;;;11.53;7.30;;;;;;;;;;760229;183;918343;-60
2021/08/26 08:28:14;;;;;;;11.73;7.30;;;;;;;;;;755472;183;918191;-60
2021/08/26 08:30:40;;;;;;;14.82;8.02;;;;;;;;;;755093;183;919673;-61
2021/08/26 08:33:07;;;;;;;16.30;8.63;;;;;;;;;;757830;183;919086;-60
2021/08/26 08:35:32;;;;;;;13.47;7.57;;;;;;;;;;754707;183;918481;-61
2021/08/26 08:37:58;;;;;;;10.63;7.20;;;;;;;;;;754560;184;919558;-60
2021/08/26 08:40:25;;;;;;;12.47;7.77;;;;;;;;;;754401;183;919936;-61
2021/08/26 08:42:50;;;;;;;9.03;6.63;;;;;;;;;;758992;184;918804;-61
2021/08/26 08:45:16;;;;;;;11.40;8.27;;;;;;;;;;754893;183;918810;-61
2021/08/26 08:47:42;;;;;;;12.50;7.57;;;;;;;;;;756260;183;918625;-61
2021/08/26 08:50:08;;;;;;;12.37;6.73;;;;;;;;;;758696;184;919142;-61
2021/08/26 08:52:35;;;;;;;14.33;7.90;;;;;;;;;;755467;181;919609;-60
2021/08/26 08:55:00;;;;;;;15.10;9.27;;;;;;;;;;754596;184;918635;-61
2021/08/26 08:57:27;;;;;;;10.90;7.95;;;;;;;;;;760197;184;918862;-61
2021/08/26 08:59:53;;;;;;;17.37;9.00;;;;;;;;;;765055;179;918507;-63
2021/08/26 09:02:19;;;;;;;10.37;7.77;;;;;;;;;;753218;184;918545;-62
2021/08/26 09:04:51;;;;;;;11.97;8.77;;;;;;;;;;753454;184;919400;-62
2021/08/26 09:07:20;;;;;;;10.10;7.10;;;;;;;;;;759415;184;919248;-66
2021/08/26 09:09:50;;;;;;;13.30;7.87;;;;;;;;;;752932;181;917670;-62
2021/08/26 09:12:16;;;;;;;16.23;8.23;;;;;;;;;;754996;184;919064;-60
2021/08/26 09:14:42;;;;;;;11.50;7.80;;;;;;;;;;753733;183;919746;-62
2021/08/26 09:17:07;;;;;;;14.73;9.47;;;;;;;;;;757999;182;925096;-62
2021/08/26 09:19:34;;;;;;;13.10;8.60;;;;;;;;;;750470;182;919011;-61
2021/08/26 09:22:01;;;;;;;12.20;8.27;;;;;;;;;;753901;182;919053;-61
2021/08/26 09:24:30;;;;;;;12.27;8.93;;;;;;;;;;760046;183;919236;-62
2021/08/26 09:26:56;;;;;;;14.87;9.30;;;;;;;;;;750196;184;919156;-62
2021/08/26 09:29:22;;;;;;;12.70;8.77;;;;;;;;;;756553;181;926134;-62
2021/08/26 09:31:48;;;;;;;11.97;8.13;;;;;;;;;;755701;183;919251;-61
2021/08/26 09:34:14;;;;;;;11.93;8.43;;;;;;;;;;758774;184;919959;-61
2021/08/26 09:36:45;;;;;;;13.47;8.50;;;;;;;;;;754920;183;917578;-61
2021/08/26 09:39:12;;;;;;;11.73;8.85;;;;;;;;;;754237;183;919353;-61
2021/08/26 09:41:39;;;;;;;18.53;10.00;;;;;;;;;;755507;184;918015;-59
2021/08/26 09:44:05;;;;;;;14.97;10.27;;;;;;;;;;763095;182;914513;-60
2021/08/26 09:46:31;;;;;;;21.33;11.20;;;;;;;;;;754198;183;918583;-62
2021/08/26 09:49:02;;;;;;;13.23;10.32;;;;;;;;;;755145;183;919144;-61
2021/08/26 09:51:28;;;;;;;13.13;10.23;;;;;;;;;;759056;183;918471;-62
2021/08/26 09:53:54;;;;;;;14.90;10.23;;;;;;;;;;754584;183;920415;-62
2021/08/26 09:56:20;;;;;;;13.70;9.33;;;;;;;;;;754760;184;929401;-61
2021/08/26 09:58:46;;;;;;;12.03;8.97;;;;;;;;;;754658;183;918658;-61
2021/08/26 10:01:12;;;;;;;13.80;8.50;;;;;;;;;;756152;184;918978;-63
2021/08/26 10:03:37;;;;;;;13.50;8.90;;;;;;;;;;754109;184;918846;-61
2021/08/26 10:06:03;;;;;;;14.10;10.43;;;;;;;;;;751750;184;919882;-62
2021/08/26 10:08:29;;;;;;;14.50;9.60;;;;;;;;;;761496;184;919253;-61
2021/08/26 10:10:55;;;;;;;13.03;9.60;;;;;;;;;;755844;184;919749;-61
2021/08/26 10:13:21;;;;;;;11.40;9.30;;;;;;;;;;754138;184;1021035;-62
2021/08/26 10:15:47;;;;;;;15.03;10.50;;;;;;;;;;759475;184;922615;-60
2021/08/26 10:18:12;;;;;;;19.67;11.43;;;;;;;;;;755119;184;919206;-61
2021/08/26 10:20:38;;;;;;;18.00;10.75;;;;;;;;;;753298;182;919314;-61
2021/08/26 10:23:05;;;;;;;13.73;10.90;;;;;;;;;;759670;184;918665;-62
2021/08/26 10:25:30;;;;;;;17.60;11.67;;;;;;;;;;754442;182;918410;-61
2021/08/26 10:27:56;;;;;;;13.27;9.93;;;;;;;;;;742804;184;919315;-62
2021/08/26 10:30:28;;;;;;;17.17;11.10;;;;;;;;;;753163;184;919194;-61
2021/08/26 10:33:09;;;;;;;16.30;11.10;;;;;;;;;;758541;184;919196;-61
2021/08/26 10:35:34;;;;;;;15.33;10.80;;;;;;;;;;757688;184;919689;-62
2021/08/26 10:38:01;;;;;;;14.73;11.63;;;;;;;;;;759815;184;919133;-62
2021/08/26 10:40:30;;;;;;;17.57;13.40;;;;;;;;;;754988;183;920742;-63
2021/08/26 10:42:56;;;;;;;16.93;12.37;;;;;;;;;;756905;183;918625;-62
2021/08/26 10:45:24;;;;;;;17.40;13.03;;;;;;;;;;753665;184;918637;-62
2021/08/26 10:48:03;;;;;;;20.07;12.87;;;;;;;;;;755257;183;920004;-63
2021/08/26 10:50:29;;;;;;;16.73;11.77;;;;;;;;;;754874;183;919617;-62
2021/08/26 10:52:59;;;;;;;16.42;12.07;;;;;;;;;;754111;183;918947;-62
2021/08/26 10:55:31;;;;;;;18.17;12.87;;;;;;;;;;758632;182;918806;-62
2021/08/26 10:57:55;;;;;;;17.60;13.70;;;;;;;;;;756347;184;920583;-62
2021/08/26 11:00:42;;;;;;;18.00;13.57;;;;;;;;;;754457;181;919363;-62
2021/08/26 11:03:07;;;;;;;18.23;11.90;;;;;;;;;;754392;184;918698;-61
2021/08/26 11:05:35;;;;;;;17.17;12.17;;;;;;;;;;754126;184;919179;-61
2021/08/26 11:08:01;;;;;;;20.30;14.57;;;;;;;;;;760643;183;919908;-62
2021/08/26 11:10:27;;;;;;;17.90;13.40;;;;;;;;;;755271;184;943638;-62
2021/08/26 11:12:53;;;;;;;20.87;13.20;;;;;;;;;;754054;184;919709;-61
2021/08/26 11:15:19;;;;;;;18.57;15.13;;;;;;;;;;758912;184;918879;-61
2021/08/26 11:17:44;;;;;;;16.00;13.27;;;;;;;;;;752665;184;919445;-61
2021/08/26 11:20:16;;;;;;;21.10;13.60;;;;;;;;;;754798;184;919377;-61
2021/08/26 11:22:48;;;;;;;17.00;13.90;;;;;;;;;;753014;184;919361;-62
2021/08/26 11:25:14;;;;;;;16.60;13.73;;;;;;;;;;758545;185;914528;-62
2021/08/26 11:27:40;;;;;;;19.53;13.57;;;;;;;;;;750779;184;940732;-62
2021/08/26 11:30:11;;;;;;;16.63;13.07;;;;;;;;;;752642;184;919261;-62
2021/08/26 11:32:37;;;;;;;25.83;17.23;;;;;;;;;;753184;183;918920;-63
2021/08/26 11:35:03;;;;;;;26.00;17.20;;;;;;;;;;759810;184;916419;-63
2021/08/26 11:37:31;;;;;;;28.00;17.03;;;;;;;;;;754851;184;915320;-63
2021/08/26 11:40:00;;;;;;;20.03;15.33;;;;;;;;;;754563;184;924714;-64
2021/08/26 11:42:25;;;;;;;19.60;14.35;;;;;;;;;;758553;184;919486;-64
2021/08/26 11:44:57;;;;;;;22.03;14.13;;;;;;;;;;754351;184;915783;-64
2021/08/26 11:47:28;;;;;;;16.70;13.23;;;;;;;;;;753956;184;919865;-64
2021/08/26 11:49:53;;;;;;;17.70;13.23;;;;;;;;;;757081;184;920086;-65
2021/08/26 11:52:19;;;;;;;15.90;12.47;;;;;;;;;;760100;183;916205;-65
2021/08/26 11:54:45;;;;;;;17.17;12.87;;;;;;;;;;756418;183;919265;-64
2021/08/26 11:57:11;;;;;;;22.70;15.80;;;;;;;;;;756528;184;921153;-64
2021/08/26 11:59:37;;;;;;;20.33;14.60;;;;;;;;;;753655;184;918898;-65
2021/08/26 12:02:08;;;;;;;16.87;12.87;;;;;;;;;;761438;184;918600;-65
2021/08/26 12:04:34;;;;;;;14.60;11.23;;;;;;;;;;755270;184;919429;-64
2021/08/26 12:07:00;;;;;;;17.87;12.73;;;;;;;;;;754322;182;958016;-65
2021/08/26 12:09:26;;;;;;;16.80;12.73;;;;;;;;;;759977;183;921609;-64
2021/08/26 12:11:52;;;;;;;15.67;11.70;;;;;;;;;;754175;184;917685;-65
2021/08/26 12:14:18;;;;;;;17.97;11.80;;;;;;;;;;754442;184;921251;-67
2021/08/26 12:16:44;;;;;;;16.87;12.93;;;;;;;;;;753601;184;929030;-66
2021/08/26 12:19:10;;;;;;;16.07;12.10;;;;;;;;;;760367;183;920344;-65
2021/08/26 12:21:36;;;;;;;17.03;12.67;;;;;;;;;;754318;183;919560;-67
2021/08/26 12:24:01;;;;;;;14.73;10.48;;;;;;;;;;753948;184;918346;-66
2021/08/26 12:26:27;;;;;;;21.27;13.43;;;;;;;;;;760023;184;917461;-63
2021/08/26 12:28:55;;;;;;;17.37;13.50;;;;;;;;;;754177;183;915600;-63
2021/08/26 12:31:21;;;;;;;16.83;12.03;;;;;;;;;;755325;184;914625;-63
2021/08/26 12:33:52;;;;;;;17.40;13.47;;;;;;;;;;757145;183;921481;-63
2021/08/26 12:36:19;;;;;;;18.90;11.43;;;;;;;;;;758262;184;920410;-61
2021/08/26 12:38:45;;;;;;;17.37;12.20;;;;;;;;;;754977;182;916104;-61
2021/08/26 12:41:13;;;;;;;16.20;12.60;;;;;;;;;;753293;181;915992;-61
2021/08/26 12:43:53;;;;;;;18.47;13.23;;;;;;;;;;755782;182;1735372;-61
2021/08/26 12:46:19;;;;;;;17.37;13.05;;;;;;;;;;759296;184;919624;-62
2021/08/26 12:48:44;;;;;;;16.87;11.73;;;;;;;;;;754196;183;908255;-63
2021/08/26 12:51:10;;;;;;;22.48;13.62;;;;;;;;;;752739;184;919088;-64
2021/08/26 12:53:36;;;;;;;35.90;14.40;;;;;;;;;;759298;184;919304;-62
2021/08/26 12:56:02;;;;;;;21.20;13.27;;;;;;;;;;755624;184;918577;-63
2021/08/26 12:58:27;;;;;;;17.07;13.30;;;;;;;;;;755137;183;919751;-61
2021/08/26 13:00:53;;;;;;;21.47;15.27;;;;;;;;;;756397;184;910365;-62
2021/08/26 13:03:19;;;;;;;24.23;16.80;;;;;;;;;;755044;184;920983;-62
2021/08/26 13:05:48;;;;;;;28.57;18.10;;;;;;;;;;755037;183;919393;-62
2021/08/26 13:08:14;;;;;;;26.12;17.37;;;;;;;;;;753640;183;920123;-61
2021/08/26 13:10:39;;;;;;;18.67;14.23;;;;;;;;;;761587;182;919398;-62
2021/08/26 13:13:07;;;;;;;21.90;17.00;;;;;;;;;;754673;185;920186;-62
2021/08/26 13:15:33;;;;;;;18.70;14.63;;;;;;;;;;757826;183;918251;-62
2021/08/26 13:18:00;;;;;;;20.23;16.17;;;;;;;;;;756998;184;919033;-62
2021/08/26 13:20:25;;;;;;;26.23;20.30;;;;;;;;;;757420;183;920174;-63
2021/08/26 13:22:51;;;;;;;32.20;23.97;;;;;;;;;;754470;182;918553;-63
2021/08/26 13:25:17;;;;;;;30.17;23.40;;;;;;;;;;753358;182;919046;-63
2021/08/26 13:27:43;;;;;;;23.33;18.07;;;;;;;;;;759864;183;919024;-63
2021/08/26 13:30:09;;;;;;;20.20;14.40;;;;;;;;;;754710;184;919929;-63
2021/08/26 13:32:35;;;;;;;16.80;15.00;;;;;;;;;;754049;184;924174;-63
2021/08/26 13:35:07;;;;;;;20.60;15.07;;;;;;;;;;759638;184;920130;-63
2021/08/26 13:37:27;;;;;;;16.87;14.20;;;;;;;;;;748145;184;918835;-64
2021/08/26 13:39:53;;;;;;;15.60;13.90;;;;;;;;;;752823;184;919162;-63
2021/08/26 13:42:19;;;;;;;19.27;14.13;;;;;;;;;;759011;184;918971;-64
2021/08/26 13:44:44;;;;;;;16.80;13.00;;;;;;;;;;755271;184;918560;-64
2021/08/26 13:47:10;;;;;;;17.33;13.47;;;;;;;;;;756889;184;919175;-64
2021/08/26 13:49:36;;;;;;;14.13;11.50;;;;;;;;;;752881;183;919068;-65
2021/08/26 13:52:03;;;;;;;14.40;12.20;;;;;;;;;;760607;184;919459;-63
2021/08/26 13:54:28;;;;;;;14.67;11.33;;;;;;;;;;756070;184;918741;-63
2021/08/26 13:56:54;;;;;;;14.77;10.90;;;;;;;;;;754101;185;919424;-63
2021/08/26 13:59:20;;;;;;;13.87;10.10;;;;;;;;;;759832;181;918583;-64
2021/08/26 14:01:46;;;;;;;12.40;9.27;;;;;;;;;;755329;184;918997;-64
2021/08/26 14:04:11;;;;;;;10.80;9.20;;;;;;;;;;753613;181;918123;-65
2021/08/26 14:06:37;;;;;;;9.57;8.27;;;;;;;;;;760469;184;918426;-64
2021/08/26 14:09:03;;;;;;;17.17;9.83;;;;;;;;;;754863;184;963007;-64